Ichinomiya, Japan
Current Conditions -  °F | °C
As of 3:30 AM on Friday 19 Dec 2014 (Local Time) from RJNG Reporting Station
Broken Clouds Broken Clouds  
Wind Chill: 23°   Ceiling: 4500
Heat Index: 23°   Visibility: 6mi
Dew Point: 23°   Wind: 0mph
Humidity: 100%   Direction: NA
Pressure: 30.39"   Gusts: NA
Location:  35.3°N, 136.8°E
Report Text: RJNG 181830Z 00000KT 9999 FEW030 BKN045 M05/M05 Q1029 RMK 1CU030 5SC045 A3040
Loading
Personal Weather Stations






























Interactive Weather Map New forecast layout! Learn more

10-Day Weather Forecast

Advertisements
Track Severe Weather on mobile